Latest Weather Observations for Melbourne Airport

IDV60901

Issued at 7:21 pm EST Monday 25 May 2015 (issued every 10 minutes, with the page automatically refreshed every 10 minutes)

About weather observations | Map of Melbourne area stations | Latest observations for Melbourne area | Other Formats
Station Details ID: 086282 Name: MELBOURNE AIRPORT Lat: -37.67 Lon: 144.83 Height: 113.4 m
Data from the previous 72 hours. | See also: Recent months at Melbourne Airport
Date/Time
EST
Tmp

°C
App
Tmp
°C
Dew
Point
°C
Rel
Hum
%
Delta-T

°C
Wind Press
QNH
hPa
Press
MSL
hPa
Rain
since
9 am
mm
Dir
 
Spd
km/h
Gust
km/h
Spd
kts
Gust
kts
25/07:00pm 10.3 5.5 5.7 73 2.1 N 20 28 11 15 1029.8 1029.8 0.0
25/06:30pm 11.0 6.4 5.8 70 2.4 N 19 28 10 15 1029.4 1029.4 0.0
25/05:30pm 10.8 7.1 6.3 74 2.1 NNE 15 19 8 10 1028.8 1028.8 0.0
25/05:00pm 13.4 10.1 6.5 63 3.3 NNE 13 17 7 9 1028.8 1028.8 0.0
25/04:30pm 15.0 12.0 6.0 55 4.3 NNE 11 15 6 8 1028.7 1028.7 0.0
25/04:00pm 15.8 12.4 5.8 51 4.8 NNE 13 17 7 9 1028.7 1028.7 0.0
25/03:30pm 15.8 11.9 5.5 50 5.0 NNE 15 19 8 10 1028.7 1028.7 0.0
25/03:00pm 15.9 12.1 5.9 51 4.8 NNE 15 20 8 11 1028.7 1028.7 0.0
25/02:30pm 15.5 11.2 5.4 51 4.8 NNE 17 24 9 13 1029.0 1029.0 0.0
25/02:00pm 15.4 11.3 6.3 54 4.4 NNE 17 22 9 12 1029.3 1029.3 0.0
25/01:30pm 15.5 11.8 6.4 54 4.4 NNE 15 19 8 10 1029.6 1029.6 0.0
25/01:00pm 14.2 10.2 6.5 60 3.7 NNE 17 20 9 11 1029.9 1029.9 0.0
25/12:30pm 13.5 9.0 6.1 61 3.5 N 19 24 10 13 1030.2 1030.2 0.0
25/12:00pm 13.4 8.7 6.0 61 3.5 N 20 30 11 16 1030.6 1030.7 0.0
25/11:30am 13.3 8.6 5.9 61 3.5 N 20 28 11 15 1031.0 1031.1 0.0
25/11:00am 12.8 8.0 5.8 62 3.3 N 20 28 11 15 1031.3 1031.4 0.0
25/10:30am 12.3 8.0 5.4 63 3.2 N 17 20 9 11 1031.7 1031.8 0.0
25/10:00am 11.7 7.4 5.4 65 2.9 N 17 22 9 12 1031.6 1031.7 0.0
25/09:30am 11.1 6.8 5.2 67 2.7 N 17 20 9 11 1031.4 1031.5 0.0
25/09:00am 10.4 5.6 4.8 68 2.5 N 19 22 10 12 1031.6 1031.7 0.0
25/08:30am 10.3 6.3 4.7 68 2.5 N 15 20 8 11 1031.5 1031.6 0.0
25/08:00am 9.7 6.1 4.8 71 2.2 N 13 15 7 8 1031.3 1031.4 0.0
25/07:30am 9.5 4.5 4.8 72 2.1 N 20 24 11 13 1031.1 1031.2 0.0
25/07:00am 9.4 4.6 4.7 72 2.1 N 19 24 10 13 1031.1 1031.2 0.0
25/06:30am 8.8 3.9 5.0 77 1.7 N 20 26 11 14 1030.9 1031.0 0.0
25/05:30am 8.9 3.2 4.9 76 1.8 N 24 28 13 15 1030.3 1030.3 0.0
25/05:00am 8.2 5.4 5.0 80 1.4 NNE 9 15 5 8 1030.0 1030.0 0.0
25/04:30am 8.6 5.0 5.0 78 1.6 N 13 15 7 8 1029.6 1029.6 0.0
25/04:00am 8.4 5.2 5.3 81 1.4 NNE 11 13 6 7 1029.9 1029.9 0.0
25/03:30am 8.0 5.2 5.3 83 1.2 NNE 9 13 5 7 1029.8 1029.8 0.0
25/03:00am 9.4 5.0 4.7 72 2.1 N 17 22 9 12 1030.3 1030.3 0.0
25/02:30am 8.6 4.3 5.2 79 1.5 N 17 19 9 10 1030.3 1030.3 0.0
25/02:00am 8.6 4.6 5.0 78 1.6 N 15 19 8 10 1030.3 1030.3 0.0
25/01:30am 7.8 4.2 4.8 81 1.3 N 13 17 7 9 1030.6 1030.7 0.0
25/01:00am 6.9 3.3 4.8 86 0.9 N 13 15 7 8 1030.5 1030.6 0.0
25/12:30am 7.2 3.6 5.2 87 0.9 N 13 15 7 8 1030.8 1030.9 0.0
 
Date/Time
EST
Tmp

°C
App
Tmp
°C
Dew
Point
°C
Rel
Hum
%
Delta-T

°C
Wind Press
QNH
hPa
Press
MSL
hPa
Rain
since
9 am
mm
Dir
 
Spd
km/h
Gust
km/h
Spd
kts
Gust
kts
24/11:30pm 8.1 3.7 4.9 80 1.4 N 17 19 9 10 1030.9 1031.0 0.0
24/11:00pm 7.3 3.2 4.3 81 1.3 N 15 17 8 9 1031.0 1031.1 0.0
24/10:30pm 6.7 2.7 5.1 89 0.7 N 15 17 8 9 1031.2 1031.3 0.0
24/10:00pm 8.6 4.6 4.8 77 1.7 NNW 15 20 8 11 1031.2 1031.3 0.0
24/09:30pm 8.3 5.4 4.7 78 1.6 NNE 9 11 5 6 1031.0 1031.1 0.0
24/09:00pm 8.5 4.9 4.9 78 1.6 N 13 15 7 8 1030.9 1031.0 0.0
24/08:30pm 9.4 5.1 5.4 76 1.8 N 17 19 9 10 1031.0 1031.1 0.0
24/08:00pm 9.9 5.3 5.5 74 2.0 N 19 26 10 14 1030.9 1031.0 0.0
24/07:30pm 10.1 5.9 5.5 73 2.1 N 17 22 9 12 1030.8 1030.9 0.0
24/07:00pm 10.7 6.1 5.5 70 2.4 N 19 24 10 13 1030.7 1030.8 0.0
24/06:30pm 10.4 6.2 5.8 73 2.1 N 17 24 9 13 1030.3 1030.3 0.0
24/06:00pm 11.5 7.3 5.9 68 2.6 N 17 20 9 11 1030.0 1030.0 0.0
24/05:30pm 11.9 7.8 6.4 69 2.6 N 17 32 9 17 1029.8 1029.8 0.0
24/05:00pm 12.8 8.7 6.0 63 3.2 N 17 22 9 12 1029.6 1029.6 0.0
24/04:30pm 13.6 9.5 6.0 60 3.6 N 17 22 9 12 1029.7 1029.7 0.0
24/04:00pm 14.8 10.5 6.8 58 3.9 N 19 24 10 13 1029.8 1029.8 0.0
24/03:30pm 15.3 11.2 6.4 55 4.3 N 17 24 9 13 1029.5 1029.5 0.0
24/03:00pm 15.2 10.4 5.8 53 4.5 NNE 20 26 11 14 1029.5 1029.5 0.0
24/02:30pm 16.3 11.8 6.0 50 5.0 NNE 19 28 10 15 1029.3 1029.3 0.0
24/02:00pm 16.5 12.7 6.0 50 5.1 N 15 20 8 11 1029.2 1029.2 0.0
24/01:30pm 15.9 12.3 5.1 48 5.2 N 13 19 7 10 1029.4 1029.4 0.0
24/01:00pm 16.9 13.5 5.7 47 5.4 NE 13 17 7 9 1029.6 1029.6 0.0
24/12:30pm 16.1 12.6 5.4 49 5.1 NNE 13 19 7 10 1030.1 1030.1 0.0
24/12:00pm 14.8 11.4 5.8 55 4.3 NNE 13 17 7 9 1030.5 1030.6 0.0
24/11:30am 13.0 10.4 6.3 64 3.2 N 9 13 5 7 1031.1 1031.2 0.0
24/11:00am 9.4 6.1 4.7 72 2.1 NNE 11 17 6 9 1031.5 1031.6 0.0
24/10:30am 7.7 4.2 3.5 75 1.8 NNW 11 13 6 7 1032.1 1032.2 0.0
24/10:00am 6.4 3.8 4.3 86 0.9 NNE 7 13 4 7 1032.2 1032.3 0.0
24/09:49am 5.6 2.9 3.7 87 0.8 N 7 11 4 6 1032.2 1032.3 0.0
24/09:30am 4.0 0.9 3.8 99 0.1 NW 9 13 5 7 1032.3 1032.4 0.0
24/09:00am 3.4 -0.5 3.2 99 0.1 WNW 13 15 7 8 1032.3 1032.4 0.0
24/08:33am 4.5 2.1 4.3 99 0.1 N 6 9 3 5 1032.0 1032.1 0.0
24/08:30am 4.5 1.9 4.0 97 0.2 N 7 9 4 5 1031.9 1032.0 0.0
24/08:00am 4.6 2.0 4.1 97 0.2 NNW 7 9 4 5 1031.5 1031.6 0.0
24/07:30am 5.2 2.3 4.5 95 0.3 N 9 11 5 6 1031.2 1031.3 0.0
24/07:10am 5.3 2.4 4.6 95 0.3 NNE 9 13 5 7 1031.0 1031.1 0.0
24/07:00am 5.4 2.5 4.7 95 0.3 NNE 9 13 5 7 1030.9 1031.0 0.0
24/06:30am 5.7 2.4 4.8 94 0.4 N 11 13 6 7 1030.8 1030.9 0.0
24/06:00am 6.0 2.7 4.8 92 0.5 N 11 15 6 8 1030.6 1030.7 0.0
24/05:30am 6.0 3.2 5.1 94 0.4 N 9 11 5 6 1030.5 1030.6 0.0
24/05:00am 6.0 2.7 4.8 92 0.5 N 11 11 6 6 1030.4 1030.4 0.0
24/04:30am 6.2 3.7 4.8 91 0.6 N 7 11 4 6 1030.3 1030.3 0.0
24/04:00am 6.7 3.8 4.9 88 0.8 NNE 9 13 5 7 1030.3 1030.3 0.0
24/03:30am 6.8 4.0 5.2 89 0.7 N 9 9 5 5 1030.3 1030.3 0.0
24/03:00am 7.3 4.0 4.8 84 1.1 NNE 11 20 6 11 1030.4 1030.4 0.0
24/02:30am 7.4 4.7 5.4 87 0.9 NNE 9 13 5 7 1030.6 1030.7 0.0
24/02:00am 7.5 4.8 5.5 87 0.9 NE 9 9 5 5 1030.9 1031.0 0.0
24/01:30am 7.5 5.3 5.5 87 0.9 N 6 7 3 4 1031.0 1031.1 0.0
24/01:00am 7.1 4.7 5.3 88 0.8 NNE 7 9 4 5 1031.1 1031.2 0.0
24/12:30am 6.4 4.0 5.3 93 0.5 N 7 9 4 5 1031.5 1031.6 0.0
24/12:00am 5.8 3.3 4.9 94 0.4 N 7 9 4 5 1031.5 1031.6 0.0
 
Date/Time
EST
Tmp

°C
App
Tmp
°C
Dew
Point
°C
Rel
Hum
%
Delta-T

°C
Wind Press
QNH
hPa
Press
MSL
hPa
Rain
since
9 am
mm
Dir
 
Spd
km/h
Gust
km/h
Spd
kts
Gust
kts
23/11:30pm 6.2 3.7 4.8 91 0.6 NNW 7 9 4 5 1031.7 1031.8 0.0
23/11:00pm 5.3 4.0 4.1 92 0.5 CALM 0 4 0 2 1031.7 1031.8 0.0
23/10:52pm 4.4 1.7 3.7 95 0.3 NNW 7 9 4 5 1031.8 1031.9 0.0
23/10:30pm 5.0 2.3 3.6 91 0.6 N 7 9 4 5 1031.8 1031.9 0.0
23/10:00pm 4.0 0.8 3.3 95 0.3 NNE 9 13 5 7 1031.9 1032.0 0.0
23/09:30pm 5.1 2.5 4.2 94 0.4 N 7 11 4 6 1032.1 1032.2 0.0
23/09:00pm 5.4 2.8 4.2 92 0.5 WNW 7 9 4 5 1032.1 1032.2 0.0
23/08:30pm 6.7 4.3 5.1 89 0.7 WSW 7 9 4 5 1032.0 1032.1 0.0
23/08:00pm 6.5 3.6 4.6 88 0.8 W 9 9 5 5 1032.0 1032.1 0.0
23/07:30pm 7.0 4.7 4.9 86 0.9 WSW 6 7 3 4 1031.9 1032.0 0.0
23/07:00pm 6.9 4.0 4.8 86 0.9 WSW 9 9 5 5 1031.7 1031.8 0.0
23/06:30pm 7.5 5.0 5.0 84 1.1 W 7 7 4 4 1031.7 1031.8 0.0
23/06:00pm 8.3 6.1 5.4 82 1.3 SSW 6 7 3 4 1031.5 1031.6 0.0
23/05:30pm 8.5 6.2 5.6 82 1.3 SSW 7 7 4 4 1031.6 1031.7 0.0
23/05:00pm 9.6 6.9 5.6 76 1.8 S 9 11 5 6 1031.5 1031.6 0.0
23/04:30pm 10.3 6.5 5.7 73 2.1 S 15 19 8 10 1031.5 1031.6 0.0
23/04:00pm 11.0 6.8 5.8 70 2.4 S 17 22 9 12 1031.5 1031.6 0.0
23/03:30pm 12.1 8.5 5.1 62 3.2 S 13 19 7 10 1031.5 1031.6 0.0
23/03:00pm 12.3 8.0 5.4 63 3.2 SSE 17 20 9 11 1031.5 1031.6 0.0
23/02:30pm 12.2 8.0 5.5 63 3.1 S 17 26 9 14 1031.4 1031.5 0.0
23/02:00pm 12.9 9.1 5.6 61 3.4 SSE 15 22 8 12 1031.3 1031.4 0.0
23/01:30pm 13.0 9.9 5.5 60 3.5 S 11 20 6 11 1031.6 1031.7 0.0
23/01:00pm 12.5 8.9 4.9 60 3.5 S 13 20 7 11 1031.8 1031.9 0.0
23/12:30pm 12.5 8.5 4.9 60 3.5 S 15 19 8 10 1032.0 1032.1 0.0
23/12:00pm 12.5 8.9 5.1 60 3.4 S 13 19 7 10 1032.5 1032.6 0.0
23/11:30am 11.7 8.4 4.6 62 3.2 S 11 17 6 9 1033.0 1033.1 0.0
23/11:00am 11.3 7.6 4.6 63 3.0 S 13 19 7 10 1033.3 1033.4 0.0
23/10:30am 10.9 7.2 4.4 64 2.9 SSE 13 19 7 10 1033.5 1033.6 0.0
23/10:00am 10.9 7.2 4.7 65 2.8 SSW 13 19 7 10 1033.5 1033.6 0.0
23/09:30am 10.6 7.3 4.6 66 2.7 SSW 11 15 6 8 1033.5 1033.6 0.0
23/09:00am 10.5 7.3 5.0 69 2.5 SSW 11 13 6 7 1033.4 1033.5 0.0
23/08:30am 9.9 7.1 5.0 71 2.2 SSW 9 13 5 7 1033.2 1033.3 0.0
23/08:00am 9.3 6.9 5.3 76 1.8 SW 7 9 4 5 1032.9 1033.0 0.0
23/07:30am 9.2 6.1 5.4 77 1.7 WSW 11 13 6 7 1032.7 1032.8 0.0
23/07:00am 9.3 6.9 5.1 75 1.9 SSW 7 9 4 5 1032.5 1032.6 0.0
23/06:30am 9.3 8.2 5.3 76 1.8 CALM 0 0 0 0 1032.4 1032.5 0.0
23/06:00am 9.3 8.4 6.0 80 1.5 CALM 0 0 0 0 1032.1 1032.2 0.0
23/05:30am 9.2 8.3 5.9 80 1.5 CALM 0 0 0 0 1032.0 1032.1 0.0
23/05:00am 9.3 8.4 6.0 80 1.5 CALM 0 0 0 0 1031.7 1031.8 0.0
23/04:30am 9.2 8.3 6.1 81 1.4 CALM 0 0 0 0 1031.6 1031.7 0.0
23/04:00am 9.3 8.5 6.5 83 1.3 CALM 0 0 0 0 1031.5 1031.6 0.0
23/03:30am 9.5 8.7 6.5 81 1.4 CALM 0 0 0 0 1031.6 1031.7 0.0
23/03:00am 9.7 8.9 6.7 81 1.4 CALM 0 0 0 0 1031.7 1031.8 0.0
23/02:30am 9.7 8.9 6.5 80 1.5 CALM 0 0 0 0 1031.9 1032.0 0.0
23/02:00am 9.7 8.9 6.5 80 1.5 CALM 0 0 0 0 1031.9 1032.0 0.0
23/01:30am 9.8 7.6 6.3 79 1.6 SW 7 9 4 5 1031.8 1031.9 0.0
23/01:00am 9.9 7.3 6.0 77 1.8 SW 9 11 5 6 1031.9 1032.0 0.0
23/12:30am 10.1 7.4 5.7 74 2.0 S 9 11 5 6 1032.1 1032.2 0.0
23/12:00am 10.0 7.4 5.9 75 1.9 SW 9 9 5 5 1032.3 1032.4 0.0
 
Date/Time
EST
Tmp

°C
App
Tmp
°C
Dew
Point
°C
Rel
Hum
%
Delta-T

°C
Wind Press
QNH
hPa
Press
MSL
hPa
Rain
since
9 am
mm
Dir
 
Spd
km/h
Gust
km/h
Spd
kts
Gust
kts
22/11:30pm 10.5 7.8 5.5 71 2.3 SSW 9 13 5 7 1032.3 1032.4 0.0
22/11:00pm 10.6 7.4 5.3 70 2.4 S 11 15 6 8 1032.1 1032.2 0.0
22/10:30pm 10.4 7.3 5.6 72 2.2 SSW 11 15 6 8 1032.2 1032.3 0.0
22/10:00pm 10.5 6.6 5.2 70 2.4 SSW 15 19 8 10 1032.1 1032.2 0.0
22/09:30pm 10.5 7.1 5.7 72 2.2 S 13 15 7 8 1032.0 1032.1 0.0
22/09:00pm 10.8 6.7 4.6 65 2.8 S 15 22 8 12 1031.9 1032.0 0.0
22/08:30pm 10.6 6.7 5.3 70 2.4 S 15 24 8 13 1031.8 1031.9 0.0
22/08:00pm 10.7 6.7 4.7 66 2.7 S 15 20 8 11 1031.7 1031.8 0.0
22/07:30pm 10.8 6.3 4.3 64 2.9 S 17 28 9 15 1031.5 1031.6 0.0

Latest Capital City Observations: Canberra | Sydney | Melbourne | Brisbane | Adelaide | Perth | Hobart | Darwin

Other Formats:

Comma delimited format used in spreadsheet applications
http://www.bom.gov.au/fwo/IDV60901/IDV60901.94866.axf

JavaScript Object Notation format (JSON) in row-major order
http://www.bom.gov.au/fwo/IDV60901/IDV60901.94866.json